createdAt,value
2018-03-24T00:00:26.138Z,-3.3
2018-03-24T00:01:15.692Z,-3.2
2018-03-24T00:02:06.641Z,-3.3
2018-03-24T00:02:56.877Z,-3.3
2018-03-24T00:03:46.399Z,-3.3
2018-03-24T00:04:36.710Z,-3.3
2018-03-24T00:05:26.751Z,-3.3
2018-03-24T00:06:17.081Z,-3.3
2018-03-24T00:07:06.839Z,-3.3
2018-03-24T00:07:57.222Z,-3.3
2018-03-24T00:08:46.704Z,-3.3
2018-03-24T00:09:36.738Z,-3.3
2018-03-24T00:10:27.086Z,-3.3
2018-03-24T00:11:17.157Z,-3.3
2018-03-24T00:12:07.211Z,-3.3
2018-03-24T00:12:56.970Z,-3.3
2018-03-24T00:13:47.601Z,-3.3
2018-03-24T00:14:37.649Z,-3.3
2018-03-24T00:15:27.415Z,-3.3
2018-03-24T00:16:17.491Z,-3.3
2018-03-24T00:17:07.858Z,-3.3
2018-03-24T00:17:57.420Z,-3.3
2018-03-24T00:18:47.440Z,-3.3
2018-03-24T00:19:37.444Z,-3.3
2018-03-24T00:20:27.200Z,-3.3
2018-03-24T00:21:17.050Z,-3.3
2018-03-24T00:22:07.488Z,-3.3
2018-03-24T00:22:57.650Z,-3.3
2018-03-24T00:23:47.809Z,-3.3
2018-03-24T00:24:38.328Z,-3.3
2018-03-24T00:25:27.911Z,-3.3
2018-03-24T00:26:18.105Z,-3.3
2018-03-24T00:27:08.250Z,-3.3
2018-03-24T00:27:57.798Z,-3.3
2018-03-24T00:28:48.064Z,-3.3
2018-03-24T00:29:38.475Z,-3.3
2018-03-24T00:30:28.727Z,-3.3
2018-03-24T00:31:17.946Z,-3.3
2018-03-24T00:32:08.890Z,-3.3
2018-03-24T00:32:58.145Z,-3.3
2018-03-24T00:33:48.495Z,-3.3
2018-03-24T00:34:38.735Z,-3.3
2018-03-24T00:35:28.769Z,-3.3
2018-03-24T00:36:18.573Z,-3.3
2018-03-24T00:37:08.632Z,-3.3
2018-03-24T00:37:58.778Z,-3.3
2018-03-24T00:38:48.760Z,-3.3
2018-03-24T00:39:38.792Z,-3.3
2018-03-24T00:40:28.864Z,-3.3
2018-03-24T00:41:18.625Z,-3.4
2018-03-24T00:42:08.958Z,-3.3
2018-03-24T00:42:59.447Z,-3.3
2018-03-24T00:43:49.431Z,-3.4
2018-03-24T00:44:38.734Z,-3.4
2018-03-24T00:45:29.079Z,-3.4
2018-03-24T00:46:19.557Z,-3.4
2018-03-24T00:47:09.597Z,-3.4
2018-03-24T00:47:59.377Z,-3.3
2018-03-24T00:48:49.422Z,-3.4
2018-03-24T00:49:39.186Z,-3.4
2018-03-24T00:50:30.124Z,-3.4
2018-03-24T00:51:19.671Z,-3.4
2018-03-24T00:52:09.169Z,-3.4
2018-03-24T00:53:00.000Z,-3.4
2018-03-24T00:53:50.029Z,-3.4
2018-03-24T00:54:40.090Z,-3.4
2018-03-24T00:55:29.573Z,-3.4
2018-03-24T00:56:19.737Z,-3.4
2018-03-24T00:57:10.286Z,-3.4
2018-03-24T00:58:00.032Z,-3.4
2018-03-24T00:58:50.202Z,-3.4
2018-03-24T00:59:40.169Z,-3.4
2018-03-24T01:00:30.221Z,-3.4
2018-03-24T01:01:19.986Z,-3.4
2018-03-24T01:02:09.805Z,-3.4
2018-03-24T01:03:00.955Z,-3.4
2018-03-24T01:03:50.418Z,-3.4
2018-03-24T01:04:40.588Z,-3.4
2018-03-24T01:05:30.150Z,-3.4
2018-03-24T01:06:20.897Z,-3.4
2018-03-24T01:07:10.473Z,-3.4
2018-03-24T01:08:00.605Z,-3.4
2018-03-24T01:08:51.060Z,-3.4
2018-03-24T01:09:41.145Z,-3.4
2018-03-24T01:10:30.940Z,-3.4
2018-03-24T01:11:20.675Z,-3.4
2018-03-24T01:12:10.695Z,-3.4
2018-03-24T01:13:01.183Z,-3.4
2018-03-24T01:13:50.838Z,-3.4
2018-03-24T01:14:40.989Z,-3.4
2018-03-24T01:15:31.539Z,-3.4
2018-03-24T01:16:21.601Z,-3.4
2018-03-24T01:17:11.248Z,-3.4
2018-03-24T01:18:01.135Z,-3.4
2018-03-24T01:18:51.455Z,-3.4
2018-03-24T01:19:41.612Z,-3.4
2018-03-24T01:20:32.152Z,-3.4
2018-03-24T01:21:22.189Z,-3.4
2018-03-24T01:22:12.263Z,-3.4
2018-03-24T01:23:02.306Z,-3.4
2018-03-24T01:23:52.384Z,-3.4
2018-03-24T01:24:42.441Z,-3.4
2018-03-24T01:25:32.485Z,-3.4
2018-03-24T01:26:22.271Z,-3.4
2018-03-24T01:27:12.045Z,-3.4
2018-03-24T01:28:02.657Z,-3.4
2018-03-24T01:28:52.724Z,-3.4
2018-03-24T01:29:42.492Z,-3.4
2018-03-24T01:30:32.823Z,-3.4
2018-03-24T01:31:22.904Z,-3.4
2018-03-24T01:32:12.990Z,-3.4
2018-03-24T01:33:02.752Z,-3.4
2018-03-24T01:33:52.772Z,-3.4
2018-03-24T01:34:43.137Z,-3.4
2018-03-24T01:35:32.877Z,-3.4
2018-03-24T01:36:22.956Z,-3.4
2018-03-24T01:37:13.013Z,-3.4
2018-03-24T01:38:03.056Z,-3.4
2018-03-24T01:38:52.834Z,-3.4
2018-03-24T01:39:42.886Z,-3.4
2018-03-24T01:40:33.056Z,-3.4
2018-03-24T01:41:23.383Z,-3.4
2018-03-24T01:42:13.376Z,-3.4
2018-03-24T01:43:03.408Z,-3.4
2018-03-24T01:43:53.467Z,-3.4
2018-03-24T01:44:43.241Z,-3.4
2018-03-24T01:45:33.601Z,-3.4
2018-03-24T01:46:23.646Z,-3.4
2018-03-24T01:47:13.701Z,-3.4
2018-03-24T01:48:03.774Z,-3.4
2018-03-24T01:48:53.799Z,-3.4
2018-03-24T01:49:43.381Z,-3.4
2018-03-24T01:50:33.351Z,-3.4
2018-03-24T01:51:23.695Z,-3.4
2018-03-24T01:52:13.541Z,-3.4
2018-03-24T01:53:03.836Z,-3.4
2018-03-24T01:53:53.970Z,-3.4
2018-03-24T01:54:43.943Z,-3.4
2018-03-24T01:55:34.274Z,-3.4
2018-03-24T01:56:24.417Z,-3.4
2018-03-24T01:57:14.381Z,-3.4
2018-03-24T01:58:04.156Z,-3.4
2018-03-24T01:58:54.298Z,-3.4
2018-03-24T01:59:44.268Z,-3.4
2018-03-24T02:00:34.343Z,-3.4
2018-03-24T02:01:24.485Z,-3.4
2018-03-24T02:02:14.707Z,-3.4
2018-03-24T02:03:04.575Z,-3.4
2018-03-24T02:03:54.676Z,-3.4
2018-03-24T02:04:44.593Z,-3.4
2018-03-24T02:05:34.750Z,-3.4
2018-03-24T02:06:24.619Z,-3.4
2018-03-24T02:07:14.490Z,-3.4
2018-03-24T02:08:04.902Z,-3.4
2018-03-24T02:08:55.185Z,-3.4
2018-03-24T02:09:45.240Z,-3.4
2018-03-24T02:10:35.307Z,-3.4
2018-03-24T02:11:24.779Z,-3.4
2018-03-24T02:12:15.186Z,-3.4
2018-03-24T02:13:05.185Z,-3.4
2018-03-24T02:13:55.328Z,-3.4
2018-03-24T02:14:44.797Z,-3.4
2018-03-24T02:15:35.435Z,-3.4
2018-03-24T02:16:25.700Z,-3.4
2018-03-24T02:17:15.469Z,-3.4
2018-03-24T02:18:05.502Z,-3.4
2018-03-24T02:18:55.556Z,-3.4
2018-03-24T02:19:45.722Z,-3.4
2018-03-24T02:20:35.981Z,-3.4
2018-03-24T02:21:25.742Z,-3.4
2018-03-24T02:22:15.517Z,-3.4
2018-03-24T02:23:06.130Z,-3.4
2018-03-24T02:23:56.191Z,-3.4
2018-03-24T02:24:45.963Z,-3.4
2018-03-24T02:25:36.015Z,-3.4
2018-03-24T02:26:26.660Z,-3.4
2018-03-24T02:27:16.690Z,-3.4
2018-03-24T02:28:06.475Z,-3.4
2018-03-24T02:28:56.813Z,-3.4
2018-03-24T02:29:46.300Z,-3.4
2018-03-24T02:30:36.374Z,-3.4
2018-03-24T02:31:26.730Z,-3.4
2018-03-24T02:32:16.478Z,-3.4
2018-03-24T02:33:06.556Z,-3.4
2018-03-24T02:33:56.305Z,-3.4
2018-03-24T02:34:46.931Z,-3.4
2018-03-24T02:35:37.088Z,-3.4
2018-03-24T02:36:26.885Z,-3.4
2018-03-24T02:37:17.218Z,-3.4
2018-03-24T02:38:06.883Z,-3.4
2018-03-24T02:38:57.179Z,-3.4
2018-03-24T02:39:46.419Z,-3.4
2018-03-24T02:40:37.153Z,-3.4
2018-03-24T02:41:27.206Z,-3.4
2018-03-24T02:42:17.457Z,-3.4
2018-03-24T02:43:07.531Z,-3.4
2018-03-24T02:43:57.591Z,-3.4
2018-03-24T02:44:47.047Z,-3.4
2018-03-24T02:45:37.400Z,-3.4
2018-03-24T02:46:27.149Z,-3.4
2018-03-24T02:47:17.235Z,-3.4
2018-03-24T02:48:07.374Z,-3.4
2018-03-24T02:48:57.629Z,-3.4
2018-03-24T02:49:47.691Z,-3.4
2018-03-24T02:50:38.023Z,-3.4
2018-03-24T02:51:28.095Z,-3.4
2018-03-24T02:52:18.434Z,-3.4
2018-03-24T02:53:08.218Z,-3.4
2018-03-24T02:53:58.039Z,-3.4
2018-03-24T02:54:48.011Z,-3.4
2018-03-24T02:55:37.805Z,-3.4
2018-03-24T02:56:28.741Z,-3.4
2018-03-24T02:57:18.001Z,-3.4
2018-03-24T02:58:08.259Z,-3.4
2018-03-24T02:58:58.180Z,-3.4
2018-03-24T02:59:48.471Z,-3.4
2018-03-24T03:00:39.023Z,-3.4
2018-03-24T03:01:27.789Z,-3.4
2018-03-24T03:02:18.613Z,-3.4
2018-03-24T03:03:08.102Z,-3.5
2018-03-24T03:03:58.524Z,-3.5
2018-03-24T03:04:48.788Z,-3.5
2018-03-24T03:05:38.835Z,-3.5
2018-03-24T03:06:28.887Z,-3.5
2018-03-24T03:07:18.946Z,-3.5
2018-03-24T03:08:09.016Z,-3.5
2018-03-24T03:08:59.124Z,-3.5
2018-03-24T03:09:49.106Z,-3.5
2018-03-24T03:10:39.164Z,-3.5
2018-03-24T03:11:29.249Z,-3.5
2018-03-24T03:12:19.305Z,-3.5
2018-03-24T03:13:08.805Z,-3.5
2018-03-24T03:13:59.398Z,-3.5
2018-03-24T03:14:49.494Z,-3.5
2018-03-24T03:15:38.962Z,-3.5
2018-03-24T03:16:29.566Z,-3.5
2018-03-24T03:17:19.651Z,-3.5
2018-03-24T03:18:09.681Z,-3.5
2018-03-24T03:18:59.458Z,-3.5
2018-03-24T03:19:49.528Z,-3.5
2018-03-24T03:20:39.080Z,-3.5
2018-03-24T03:21:29.643Z,-3.5
2018-03-24T03:22:19.419Z,-3.5
2018-03-24T03:23:09.758Z,-3.5
2018-03-24T03:24:00.305Z,-3.5
2018-03-24T03:24:50.163Z,-3.5
2018-03-24T03:25:40.742Z,-3.5
2018-03-24T03:26:30.231Z,-3.5
2018-03-24T03:27:20.553Z,-3.5
2018-03-24T03:28:10.105Z,-3.5
2018-03-24T03:29:00.070Z,-3.5
2018-03-24T03:29:50.713Z,-3.5
2018-03-24T03:30:40.574Z,-3.5
2018-03-24T03:31:30.552Z,-3.5
2018-03-24T03:32:20.582Z,-3.5
2018-03-24T03:33:10.650Z,-3.5
2018-03-24T03:34:00.589Z,-3.5
2018-03-24T03:34:50.554Z,-3.5
2018-03-24T03:35:40.682Z,-3.5
2018-03-24T03:36:30.672Z,-3.5
2018-03-24T03:37:20.659Z,-3.6
2018-03-24T03:38:11.564Z,-3.5
2018-03-24T03:39:01.140Z,-3.6
2018-03-24T03:39:51.395Z,-3.5
2018-03-24T03:40:41.150Z,-3.6
2018-03-24T03:41:31.782Z,-3.5
2018-03-24T03:42:21.421Z,-3.5
2018-03-24T03:43:10.840Z,-3.6
2018-03-24T03:44:00.984Z,-3.6
2018-03-24T03:44:52.019Z,-3.5
2018-03-24T03:45:41.763Z,-3.6
2018-03-24T03:46:31.355Z,-3.5
2018-03-24T03:47:21.926Z,-3.6
2018-03-24T03:48:11.437Z,-3.6
2018-03-24T03:49:01.449Z,-3.6
2018-03-24T03:49:51.681Z,-3.6
2018-03-24T03:50:42.406Z,-3.6
2018-03-24T03:51:32.212Z,-3.5
2018-03-24T03:52:21.744Z,-3.6
2018-03-24T03:53:12.197Z,-3.6
2018-03-24T03:54:01.854Z,-3.6
2018-03-24T03:54:51.911Z,-3.6
2018-03-24T03:55:41.888Z,-3.5
2018-03-24T03:56:32.255Z,-3.6
2018-03-24T03:57:22.296Z,-3.6
2018-03-24T03:58:12.456Z,-3.6
2018-03-24T03:59:02.398Z,-3.6
2018-03-24T03:59:52.577Z,-3.6
2018-03-24T04:00:42.609Z,-3.6
2018-03-24T04:01:32.865Z,-3.5
2018-03-24T04:02:22.140Z,-3.5
2018-03-24T04:03:13.075Z,-3.6
2018-03-24T04:04:03.036Z,-3.6
2018-03-24T04:04:52.628Z,-3.5
2018-03-24T04:05:42.565Z,-3.5
2018-03-24T04:06:32.513Z,-3.6
2018-03-24T04:07:22.778Z,-3.5
2018-03-24T04:08:13.035Z,-3.5
2018-03-24T04:09:03.682Z,-3.5
2018-03-24T04:09:53.138Z,-3.6
2018-03-24T04:10:43.607Z,-3.6
2018-03-24T04:11:33.357Z,-3.5
2018-03-24T04:12:23.035Z,-3.5
2018-03-24T04:13:13.470Z,-3.5
2018-03-24T04:14:03.227Z,-3.5
2018-03-24T04:14:53.485Z,-3.5
2018-03-24T04:15:43.829Z,-3.5
2018-03-24T04:16:33.611Z,-3.6
2018-03-24T04:17:23.750Z,-3.5
2018-03-24T04:18:13.723Z,-3.5
2018-03-24T04:19:04.082Z,-3.6
2018-03-24T04:19:53.545Z,-3.6
2018-03-24T04:20:43.694Z,-3.5
2018-03-24T04:21:33.749Z,-3.6
2018-03-24T04:22:23.715Z,-3.6
2018-03-24T04:23:14.349Z,-3.6
2018-03-24T04:24:04.110Z,-3.5
2018-03-24T04:24:54.584Z,-3.6
2018-03-24T04:25:44.842Z,-3.5
2018-03-24T04:26:34.691Z,-3.5
2018-03-24T04:27:24.355Z,-3.5
2018-03-24T04:28:14.289Z,-3.5
2018-03-24T04:29:04.750Z,-3.5
2018-03-24T04:29:54.524Z,-3.5
2018-03-24T04:30:44.657Z,-3.5
2018-03-24T04:31:34.941Z,-3.5
2018-03-24T04:32:25.275Z,-3.5
2018-03-24T04:33:14.842Z,-3.5
2018-03-24T04:34:04.906Z,-3.6
2018-03-24T04:34:54.861Z,-3.5
2018-03-24T04:35:44.707Z,-3.5
2018-03-24T04:36:34.564Z,-3.5
2018-03-24T04:37:25.108Z,-3.5
2018-03-24T04:38:15.659Z,-3.5
2018-03-24T04:39:05.141Z,-3.5
2018-03-24T04:39:55.759Z,-3.5
2018-03-24T04:40:45.809Z,-3.5
2018-03-24T04:41:35.886Z,-3.5
2018-03-24T04:42:25.641Z,-3.5
2018-03-24T04:43:16.017Z,-3.5
2018-03-24T04:44:06.051Z,-3.5
2018-03-24T04:44:56.101Z,-3.5
2018-03-24T04:45:45.878Z,-3.5
2018-03-24T04:46:36.212Z,-3.5
2018-03-24T04:47:26.267Z,-3.4
2018-03-24T04:48:16.350Z,-3.5
2018-03-24T04:49:06.086Z,-3.5
2018-03-24T04:49:56.422Z,-3.4
2018-03-24T04:50:46.515Z,-3.4
2018-03-24T04:51:36.602Z,-3.4
2018-03-24T04:52:26.326Z,-3.4
2018-03-24T04:53:16.664Z,-3.4
2018-03-24T04:54:06.734Z,-3.4
2018-03-24T04:54:56.484Z,-3.5
2018-03-24T04:55:46.538Z,-3.4
2018-03-24T04:56:36.318Z,-3.4
2018-03-24T04:57:26.935Z,-3.4
2018-03-24T04:58:16.459Z,-3.4
2018-03-24T04:59:06.790Z,-3.4
2018-03-24T04:59:57.133Z,-3.4
2018-03-24T05:00:46.963Z,-3.4
2018-03-24T05:01:36.670Z,-3.4
2018-03-24T05:02:27.027Z,-3.4
2018-03-24T05:03:17.347Z,-3.4
2018-03-24T05:04:06.874Z,-3.4
2018-03-24T05:04:57.171Z,-3.4
2018-03-24T05:05:46.971Z,-3.4
2018-03-24T05:06:37.087Z,-3.4
2018-03-24T05:07:27.390Z,-3.4
2018-03-24T05:08:17.411Z,-3.4
2018-03-24T05:09:07.743Z,-3.4
2018-03-24T05:09:57.559Z,-3.4
2018-03-24T05:10:47.592Z,-3.4
2018-03-24T05:11:37.910Z,-3.4
2018-03-24T05:12:27.194Z,-3.4
2018-03-24T05:13:17.556Z,-3.4
2018-03-24T05:14:07.814Z,-3.4
2018-03-24T05:14:57.654Z,-3.4
2018-03-24T05:15:47.147Z,-3.4
2018-03-24T05:16:37.739Z,-3.4
2018-03-24T05:17:27.557Z,-3.4
2018-03-24T05:18:17.589Z,-3.4
2018-03-24T05:19:07.667Z,-3.4
2018-03-24T05:19:57.706Z,-3.4
2018-03-24T05:20:48.060Z,-3.3
2018-03-24T05:21:38.114Z,-3.4
2018-03-24T05:22:28.171Z,-3.4
2018-03-24T05:23:17.949Z,-3.4
2018-03-24T05:24:08.298Z,-3.4
2018-03-24T05:24:58.059Z,-3.4
2018-03-24T05:25:48.883Z,-3.3
2018-03-24T05:26:38.680Z,-3.3
2018-03-24T05:27:28.523Z,-3.3
2018-03-24T05:28:18.569Z,-3.3
2018-03-24T05:29:08.104Z,-3.3
2018-03-24T05:29:58.393Z,-3.3
2018-03-24T05:30:49.238Z,-3.3
2018-03-24T05:31:38.721Z,-3.3
2018-03-24T05:32:29.335Z,-3.3
2018-03-24T05:33:19.398Z,-3.3
2018-03-24T05:34:09.169Z,-3.3
2018-03-24T05:34:59.246Z,-3.3
2018-03-24T05:35:49.596Z,-3.3
2018-03-24T05:36:39.356Z,-3.3
2018-03-24T05:37:29.718Z,-3.3
2018-03-24T05:38:19.487Z,-3.2
2018-03-24T05:39:09.638Z,-3.2
2018-03-24T05:39:59.575Z,-3.2
2018-03-24T05:40:49.974Z,-3.2
2018-03-24T05:41:39.957Z,-3.2
2018-03-24T05:42:29.764Z,-3.2
2018-03-24T05:43:19.522Z,-3.1
2018-03-24T05:44:09.871Z,-3.1
2018-03-24T05:44:59.907Z,-3.1
2018-03-24T05:45:49.685Z,-3.1
2018-03-24T05:46:40.316Z,-3.1
2018-03-24T05:47:30.368Z,-3.1
2018-03-24T05:48:20.160Z,-3.1
2018-03-24T05:49:10.177Z,-3.1
2018-03-24T05:50:00.270Z,-3.1
2018-03-24T05:50:50.315Z,-3.1
2018-03-24T05:51:40.390Z,-3
2018-03-24T05:52:30.437Z,-3
2018-03-24T05:53:20.480Z,-3
2018-03-24T05:54:10.821Z,-2.9
2018-03-24T05:55:00.595Z,-2.9
2018-03-24T05:55:50.468Z,-2.9
2018-03-24T05:56:40.239Z,-2.9
2018-03-24T05:57:31.065Z,-2.9
2018-03-24T05:58:20.830Z,-2.9
2018-03-24T05:59:11.154Z,-2.9
2018-03-24T06:00:00.950Z,-2.9
2018-03-24T06:00:51.261Z,-2.8
2018-03-24T06:01:41.325Z,-2.8
2018-03-24T06:02:31.403Z,-2.8
2018-03-24T06:03:21.498Z,-2.8
2018-03-24T06:04:11.514Z,-2.8
2018-03-24T06:05:01.294Z,-2.8
2018-03-24T06:05:51.346Z,-2.7
2018-03-24T06:06:41.664Z,-2.7
2018-03-24T06:07:31.441Z,-2.7
2018-03-24T06:08:21.502Z,-2.6
2018-03-24T06:09:11.840Z,-2.6
2018-03-24T06:10:01.928Z,-2.6
2018-03-24T06:10:51.383Z,-2.6
2018-03-24T06:11:41.734Z,-2.6
2018-03-24T06:12:32.091Z,-2.5
2018-03-24T06:13:21.855Z,-2.5
2018-03-24T06:14:11.951Z,-2.5
2018-03-24T06:15:02.238Z,-2.5
2018-03-24T06:15:52.062Z,-2.5
2018-03-24T06:16:42.048Z,-2.4
2018-03-24T06:17:32.418Z,-2.4
2018-03-24T06:18:22.513Z,-2.4
2018-03-24T06:19:12.538Z,-2.4
2018-03-24T06:20:02.024Z,-2.4
2018-03-24T06:20:52.622Z,-2.3
2018-03-24T06:21:42.134Z,-2.3
2018-03-24T06:22:32.740Z,-2.3
2018-03-24T06:23:22.811Z,-2.3
2018-03-24T06:24:12.599Z,-2.2
2018-03-24T06:25:02.911Z,-2.2
2018-03-24T06:25:52.701Z,-2.2
2018-03-24T06:26:42.761Z,-2.2
2018-03-24T06:27:33.127Z,-2.1
2018-03-24T06:28:23.130Z,-2.1
2018-03-24T06:29:13.184Z,-2.1
2018-03-24T06:30:02.979Z,-2.1
2018-03-24T06:30:53.316Z,-2.1
2018-03-24T06:31:43.369Z,-2.1
2018-03-24T06:32:33.143Z,-2.1
2018-03-24T06:33:23.516Z,-2
2018-03-24T06:34:13.299Z,-2
2018-03-24T06:35:03.085Z,-2
2018-03-24T06:35:53.384Z,-1.9
2018-03-24T06:36:43.706Z,-1.9
2018-03-24T06:37:33.761Z,-1.9
2018-03-24T06:38:23.935Z,-1.8
2018-03-24T06:39:13.314Z,-1.8
2018-03-24T06:40:03.663Z,-1.8
2018-03-24T06:40:54.193Z,-1.7
2018-03-24T06:41:44.061Z,-1.7
2018-03-24T06:42:34.154Z,-1.7
2018-03-24T06:43:23.900Z,-1.6
2018-03-24T06:44:13.953Z,-1.6
2018-03-24T06:45:04.280Z,-1.6
2018-03-24T06:45:54.354Z,-1.5
2018-03-24T06:46:44.128Z,-1.5
2018-03-24T06:47:34.488Z,-1.4
2018-03-24T06:48:24.514Z,-1.4
2018-03-24T06:49:14.586Z,-1.4
2018-03-24T06:50:04.626Z,-1.4
2018-03-24T06:50:54.722Z,-1.4
2018-03-24T06:51:44.164Z,-1.3
2018-03-24T06:52:34.504Z,-1.3
2018-03-24T06:53:24.867Z,-1.3
2018-03-24T06:54:14.410Z,-1.2
2018-03-24T06:55:04.692Z,-1.2
2018-03-24T06:55:54.772Z,-1.1
2018-03-24T06:56:44.787Z,-1.1
2018-03-24T06:57:34.852Z,-1.1
2018-03-24T06:58:25.190Z,-1.1
2018-03-24T06:59:14.975Z,-1
2018-03-24T07:00:05.312Z,-1
2018-03-24T07:02:35.184Z,-0.9
2018-03-24T07:03:25.522Z,-0.9
2018-03-24T07:04:15.587Z,-0.8
2018-03-24T07:05:05.363Z,-0.8
2018-03-24T07:05:55.689Z,-0.8
2018-03-24T07:06:45.763Z,-0.8
2018-03-24T07:07:35.821Z,-0.8
2018-03-24T07:08:25.864Z,-0.7
2018-03-24T07:09:15.642Z,-0.7
2018-03-24T07:10:05.969Z,-0.6
2018-03-24T07:10:56.029Z,-0.6
2018-03-24T07:11:45.814Z,-0.6
2018-03-24T07:12:35.869Z,-0.6
2018-03-24T07:13:26.253Z,-0.6
2018-03-24T07:14:15.978Z,-0.5
2018-03-24T07:15:06.093Z,-0.5
2018-03-24T07:15:56.094Z,-0.5
2018-03-24T07:16:46.434Z,-0.4
2018-03-24T07:17:36.481Z,-0.4
2018-03-24T07:18:26.531Z,-0.4
2018-03-24T07:19:16.333Z,-0.4
2018-03-24T07:20:06.684Z,-0.3
2018-03-24T07:20:56.712Z,-0.3
2018-03-24T07:21:46.485Z,-0.3
2018-03-24T07:22:36.280Z,-0.3
2018-03-24T07:23:26.885Z,-0.3
2018-03-24T07:24:16.928Z,-0.3
2018-03-24T07:25:07.020Z,-0.2
2018-03-24T07:25:57.105Z,-0.2
2018-03-24T07:26:46.821Z,-0.2
2018-03-24T07:27:37.250Z,-0.2
2018-03-24T07:28:27.231Z,-0.1
2018-03-24T07:29:17.027Z,-0.1
2018-03-24T07:30:07.352Z,-0.1
2018-03-24T07:30:57.118Z,-0.1
2018-03-24T07:31:47.460Z,0
2018-03-24T07:32:37.547Z,0
2018-03-24T07:33:27.551Z,0
2018-03-24T07:34:17.349Z,0
2018-03-24T07:35:07.167Z,0.1
2018-03-24T07:35:57.739Z,0.1
2018-03-24T07:36:47.314Z,0.1
2018-03-24T07:37:37.092Z,0.1
2018-03-24T07:38:27.408Z,0.1
2018-03-24T07:39:17.983Z,0.1
2018-03-24T07:40:08.012Z,0.1
2018-03-24T07:40:57.797Z,0.1
2018-03-24T07:41:47.844Z,0.2
2018-03-24T07:42:38.177Z,0.2
2018-03-24T07:43:28.252Z,0.2
2018-03-24T07:44:18.024Z,0.3
2018-03-24T07:45:08.378Z,0.3
2018-03-24T07:45:58.424Z,0.3
2018-03-24T07:46:48.279Z,0.3
2018-03-24T07:47:38.849Z,0.3
2018-03-24T07:48:28.593Z,0.3
2018-03-24T07:49:18.451Z,0.3
2018-03-24T07:50:08.425Z,0.4
2018-03-24T07:50:58.817Z,0.4
2018-03-24T07:51:48.796Z,0.4
2018-03-24T07:52:38.623Z,0.4
2018-03-24T07:53:28.912Z,0.4
2018-03-24T07:54:18.681Z,0.5
2018-03-24T07:55:08.776Z,0.5
2018-03-24T07:55:58.817Z,0.6
2018-03-24T07:56:49.151Z,0.5
2018-03-24T07:57:38.936Z,0.6
2018-03-24T07:58:28.689Z,0.6
2018-03-24T07:59:19.332Z,0.7
2018-03-24T08:00:09.389Z,0.7
2018-03-24T08:00:59.437Z,0.8
2018-03-24T08:01:49.498Z,0.8
2018-03-24T08:02:39.533Z,0.9
2018-03-24T08:03:29.595Z,0.9
2018-03-24T08:04:19.834Z,0.9
2018-03-24T08:05:09.750Z,1
2018-03-24T08:05:59.754Z,1.1
2018-03-24T08:06:49.581Z,1.2
2018-03-24T08:07:39.961Z,1.3
2018-03-24T08:08:29.928Z,1.3
2018-03-24T08:09:19.998Z,1.4
2018-03-24T08:10:09.806Z,1.6
2018-03-24T08:11:00.185Z,1.6
2018-03-24T08:11:49.888Z,1.8
2018-03-24T08:12:39.932Z,1.9
2018-03-24T08:13:30.018Z,2.2
2018-03-24T08:14:20.043Z,2.4
2018-03-24T08:15:10.381Z,2.7
2018-03-24T08:16:00.150Z,3
2018-03-24T08:16:49.514Z,3.4
2018-03-24T08:17:39.508Z,3.8
2018-03-24T08:18:30.255Z,4.3
2018-03-24T08:19:20.098Z,4.7
2018-03-24T08:20:10.168Z,5.1
2018-03-24T08:21:00.241Z,5.6
2018-03-24T08:21:50.257Z,6
2018-03-24T08:22:40.055Z,6.3
2018-03-24T08:23:30.197Z,6.7
2018-03-24T08:24:20.637Z,7.1
2018-03-24T08:25:10.800Z,7.4
2018-03-24T08:26:00.373Z,7.7
2018-03-24T08:26:50.902Z,7.9
2018-03-24T08:27:40.773Z,8.3
2018-03-24T08:28:31.326Z,8.5
2018-03-24T08:29:20.389Z,8.8
2018-03-24T08:30:10.932Z,9.1
2018-03-24T08:31:01.189Z,9.3
2018-03-24T08:31:51.263Z,9.6
2018-03-24T08:32:41.014Z,9.9
2018-03-24T08:33:31.264Z,10.1
2018-03-24T08:34:21.525Z,10.4
2018-03-24T08:35:11.464Z,10.7
2018-03-24T08:36:01.235Z,11.1
2018-03-24T08:36:51.391Z,11.4
2018-03-24T08:37:41.376Z,11.6
2018-03-24T08:38:31.411Z,11.9
2018-03-24T08:39:21.837Z,12.3
2018-03-24T08:40:11.815Z,12.5
2018-03-24T08:41:01.287Z,12.8
2018-03-24T08:41:51.652Z,13.1
2018-03-24T08:42:41.989Z,13.3
2018-03-24T08:43:32.044Z,13.6
2018-03-24T08:44:22.087Z,13.9
2018-03-24T08:45:12.196Z,14.3
2018-03-24T08:46:02.506Z,14.6
2018-03-24T08:46:51.676Z,14.9
2018-03-24T08:47:42.139Z,15.2
2018-03-24T08:48:31.803Z,15.5
2018-03-24T08:49:22.431Z,15.8
2018-03-24T08:50:12.213Z,16.1
2018-03-24T08:51:01.771Z,16.4
2018-03-24T08:51:52.605Z,16.6
2018-03-24T08:52:42.660Z,16.9
2018-03-24T08:53:32.719Z,17.3
2018-03-24T08:54:22.361Z,17.6
2018-03-24T08:55:12.834Z,17.9
2018-03-24T08:56:02.287Z,18.2
2018-03-24T08:56:52.689Z,18.6
2018-03-24T08:57:42.715Z,18.9
2018-03-24T08:58:33.056Z,19.1
2018-03-24T08:59:22.831Z,19.5
2018-03-24T09:00:12.371Z,19.8
2018-03-24T09:01:03.231Z,20.2
2018-03-24T09:01:52.984Z,20.6
2018-03-24T09:02:43.313Z,20.9
2018-03-24T09:03:32.614Z,21.3
2018-03-24T09:04:22.969Z,21.6
2018-03-24T09:05:12.914Z,22.1
2018-03-24T09:06:03.358Z,22.4
2018-03-24T09:06:53.686Z,22.9
2018-03-24T09:07:43.385Z,23.3
2018-03-24T09:08:33.728Z,23.6
2018-03-24T09:09:23.805Z,24
2018-03-24T09:10:13.358Z,24.4
2018-03-24T09:11:04.185Z,24.8
2018-03-24T09:11:53.960Z,25.2
2018-03-24T09:12:43.434Z,25.6
2018-03-24T09:13:33.477Z,26
2018-03-24T09:14:23.817Z,26.4
2018-03-24T09:15:13.894Z,26.9
2018-03-24T09:16:04.248Z,27.5
2018-03-24T09:16:54.384Z,28
2018-03-24T09:17:44.357Z,28.4
2018-03-24T09:18:34.685Z,28.9
2018-03-24T09:19:24.165Z,29.3
2018-03-24T09:20:14.804Z,29.8
2018-03-24T09:21:04.401Z,30.4
2018-03-24T09:21:54.348Z,30.9
2018-03-24T09:22:44.784Z,31.4
2018-03-24T09:23:34.461Z,32
2018-03-24T09:24:24.253Z,32.5
2018-03-24T09:25:14.252Z,33.1
2018-03-24T09:26:04.896Z,33.8
2018-03-24T09:26:54.965Z,34.4
2018-03-24T09:27:44.751Z,34.9
2018-03-24T09:28:34.782Z,35.4
2018-03-24T09:29:25.430Z,35.9
2018-03-24T09:30:15.183Z,36.4
2018-03-24T09:31:05.246Z,37
2018-03-24T09:31:54.814Z,37.7
2018-03-24T09:32:45.336Z,38.3
2018-03-24T09:33:34.639Z,39.2
2018-03-24T09:34:25.541Z,40
2018-03-24T09:35:15.238Z,40.8
2018-03-24T09:36:05.882Z,41.5
2018-03-24T09:36:55.371Z,42.2
2018-03-24T09:37:45.133Z,43
2018-03-24T09:38:35.479Z,43.8
2018-03-24T09:39:25.624Z,44.8
2018-03-24T09:40:15.878Z,45.7
2018-03-24T09:41:05.787Z,46.6
2018-03-24T09:41:55.706Z,47.3
2018-03-24T09:42:45.759Z,48
2018-03-24T09:43:36.106Z,48.8
2018-03-24T09:44:25.710Z,49.4
2018-03-24T09:45:15.647Z,49.9
2018-03-24T09:46:05.688Z,50.4
2018-03-24T09:46:55.929Z,50.8
2018-03-24T09:47:46.088Z,51.2
2018-03-24T09:48:35.756Z,51.7
2018-03-24T09:49:26.298Z,52
2018-03-24T17:51:48.116Z,1.5
2018-03-24T17:52:38.176Z,1.5
2018-03-24T17:53:28.232Z,1.4
2018-03-24T17:54:18.695Z,1.4
2018-03-24T17:55:08.622Z,1.4
2018-03-24T17:55:58.303Z,1.4
2018-03-24T17:56:48.768Z,1.4
2018-03-24T17:57:38.280Z,1.3
2018-03-24T17:58:28.342Z,1.3
2018-03-24T17:59:18.439Z,1.3
2018-03-24T18:00:08.486Z,1.3
2018-03-24T18:00:58.445Z,1.3
2018-03-24T18:01:48.508Z,1.3
2018-03-24T18:02:38.855Z,1.2
2018-03-24T18:03:28.987Z,1.2
2018-03-24T18:04:19.255Z,1.2
2018-03-24T18:05:08.819Z,1.2
2018-03-24T18:05:59.390Z,1.1
2018-03-24T18:06:48.939Z,1.1
2018-03-24T18:07:39.659Z,1.1
2018-03-24T18:08:29.236Z,1.1
2018-03-24T18:09:19.593Z,1.1
2018-03-24T18:10:09.478Z,1.1
2018-03-24T18:10:59.427Z,1.1
2018-03-24T18:11:49.752Z,1.1
2018-03-24T18:12:40.082Z,1.1
2018-03-24T18:13:29.097Z,1
2018-03-24T18:14:19.457Z,1
2018-03-24T18:15:09.792Z,1
2018-03-24T18:15:59.811Z,0.9
2018-03-24T18:16:49.888Z,0.9
2018-03-24T18:17:39.931Z,0.9
2018-03-24T18:18:30.019Z,0.9
2018-03-24T18:19:20.052Z,0.9
2018-03-24T18:20:10.118Z,0.9
2018-03-24T18:20:59.874Z,0.9
2018-03-24T18:21:49.931Z,0.9
2018-03-24T18:22:40.267Z,0.8
2018-03-24T18:23:30.323Z,0.8
2018-03-24T18:24:20.420Z,0.8
2018-03-24T18:25:10.172Z,0.8
2018-03-24T18:26:00.245Z,0.8
2018-03-24T18:26:51.048Z,0.8
2018-03-24T18:27:40.625Z,0.8
2018-03-24T18:28:30.100Z,0.8
2018-03-24T18:29:20.453Z,0.8
2018-03-24T18:30:10.501Z,0.8
2018-03-24T18:31:00.563Z,0.8
2018-03-24T18:31:50.916Z,0.7
2018-03-24T18:32:40.948Z,0.7
2018-03-24T18:33:31.000Z,0.7
2018-03-24T18:34:20.810Z,0.7
2018-03-24T18:35:11.617Z,0.7
2018-03-24T18:36:00.907Z,0.6
2018-03-24T18:36:50.185Z,0.6
2018-03-24T18:37:40.618Z,0.6
2018-03-24T18:38:31.555Z,0.6
2018-03-24T18:39:21.337Z,0.6
2018-03-24T18:40:10.905Z,0.6
2018-03-24T18:41:01.249Z,0.6
2018-03-24T18:41:51.025Z,0.6
2018-03-24T18:42:41.167Z,0.6
2018-03-24T18:43:31.627Z,0.6
2018-03-24T18:44:21.760Z,0.6
2018-03-24T18:45:12.285Z,0.6
2018-03-24T18:46:01.790Z,0.6
2018-03-24T18:46:52.135Z,0.5
2018-03-24T18:47:42.532Z,0.5
2018-03-24T18:48:32.069Z,0.5
2018-03-24T18:49:22.295Z,0.5
2018-03-24T18:50:12.639Z,0.4
2018-03-24T18:51:02.674Z,0.5
2018-03-24T18:51:52.754Z,0.4
2018-03-24T18:52:42.784Z,0.4
2018-03-24T18:53:32.852Z,0.4
2018-03-24T18:54:22.149Z,0.4
2018-03-24T18:55:12.966Z,0.4
2018-03-24T18:56:03.016Z,0.4
2018-03-24T18:56:53.068Z,0.4
2018-03-24T18:57:43.141Z,0.4
2018-03-24T18:58:33.194Z,0.4
2018-03-24T18:59:23.229Z,0.4
2018-03-24T19:00:13.022Z,0.4
2018-03-24T19:01:03.371Z,0.4
2018-03-24T19:01:53.411Z,0.3
2018-03-24T19:02:43.180Z,0.3
2018-03-24T19:03:32.958Z,0.3
2018-03-24T19:04:23.585Z,0.3
2018-03-24T19:05:13.880Z,0.3
2018-03-24T19:06:03.701Z,0.3
2018-03-24T19:06:53.743Z,0.3
2018-03-24T19:07:43.800Z,0.3
2018-03-24T19:08:33.576Z,0.3
2018-03-24T19:09:23.905Z,0.3
2018-03-24T19:10:13.687Z,0.3
2018-03-24T19:11:04.050Z,0.3
2018-03-24T19:11:54.094Z,0.3
2018-03-24T19:12:44.141Z,0.3
2018-03-24T19:13:33.690Z,0.3
2018-03-24T19:14:24.275Z,0.3
2018-03-24T19:15:14.315Z,0.3
2018-03-24T19:16:04.398Z,0.2